createdAt,value
2019-01-24T00:00:11.051Z,91877.80
2019-01-24T00:00:35.230Z,91879.38
2019-01-24T00:00:59.377Z,91876.79
2019-01-24T00:01:21.934Z,91878.87
2019-01-24T00:01:45.011Z,91885.48
2019-01-24T00:02:09.210Z,91882.62
2019-01-24T00:02:31.970Z,91882.90
2019-01-24T00:02:54.670Z,91885.27
2019-01-24T00:03:17.430Z,91886.39
2019-01-24T00:03:39.990Z,91877.63
2019-01-24T00:04:02.523Z,91884.16
2019-01-24T00:04:25.139Z,91884.52
2019-01-24T00:04:48.110Z,91887.23
2019-01-24T00:05:10.788Z,91883.80
2019-01-24T00:05:33.470Z,91884.59
2019-01-24T00:05:56.348Z,91885.73
2019-01-24T00:06:18.991Z,91884.88
2019-01-24T00:06:41.770Z,91890.56
2019-01-24T00:07:04.386Z,91879.93
2019-01-24T00:07:27.870Z,91889.20
2019-01-24T00:07:50.467Z,91883.75
2019-01-24T00:08:13.507Z,91883.02
2019-01-24T00:08:36.270Z,91883.53
2019-01-24T00:08:58.872Z,91885.89
2019-01-24T00:09:21.553Z,91886.68
2019-01-24T00:09:44.330Z,91887.97
2019-01-24T00:10:07.310Z,91885.27
2019-01-24T00:10:29.950Z,91883.84
2019-01-24T00:10:52.630Z,91889.59
2019-01-24T00:11:16.270Z,91887.01
2019-01-24T00:11:38.930Z,91886.95
2019-01-24T00:12:02.037Z,91891.48
2019-01-24T00:12:24.701Z,91885.78
2019-01-24T00:12:47.390Z,91885.56
2019-01-24T00:13:10.012Z,91885.48
2019-01-24T00:13:33.090Z,91884.53
2019-01-24T00:13:55.890Z,91885.27
2019-01-24T00:14:20.075Z,91880.54
2019-01-24T00:14:42.679Z,91889.83
2019-01-24T00:15:05.291Z,91883.80
2019-01-24T00:15:28.310Z,91887.62
2019-01-24T00:15:50.930Z,91885.03
2019-01-24T00:16:13.504Z,91890.48
2019-01-24T00:16:36.229Z,91889.89
2019-01-24T00:16:58.944Z,91887.69
2019-01-24T00:17:21.634Z,91893.02
2019-01-24T00:17:45.010Z,91890.72
2019-01-24T00:18:08.090Z,91887.41
2019-01-24T00:18:31.303Z,91896.75
2019-01-24T00:18:53.969Z,91892.80
2019-01-24T00:19:16.511Z,91887.69
2019-01-24T00:19:39.070Z,91888.13
2019-01-24T00:20:01.630Z,91892.02
2019-01-24T00:20:24.385Z,91892.08
2019-01-24T00:20:47.150Z,91895.29
2019-01-24T00:21:09.850Z,91894.66
2019-01-24T00:21:32.547Z,91890.40
2019-01-24T00:21:55.265Z,91893.64
2019-01-24T00:22:17.983Z,91892.57
2019-01-24T00:22:40.670Z,91892.28
2019-01-24T00:23:03.210Z,91896.67
2019-01-24T00:23:25.825Z,91941.22
2019-01-24T00:23:48.609Z,91889.70
2019-01-24T00:24:11.310Z,91896.17
2019-01-24T00:24:34.051Z,91895.00
2019-01-24T00:24:56.650Z,91892.80
2019-01-24T00:25:19.420Z,91901.34
2019-01-24T00:25:42.174Z,91900.90
2019-01-24T00:26:04.930Z,91896.45
2019-01-24T00:26:28.010Z,91899.61
2019-01-24T00:26:50.809Z,91900.67
2019-01-24T00:27:13.452Z,91898.15
2019-01-24T00:27:35.945Z,91896.06
2019-01-24T00:27:58.551Z,91896.01
2019-01-24T00:28:21.250Z,91890.95
2019-01-24T00:28:43.891Z,91897.25
2019-01-24T00:29:06.851Z,91893.69
2019-01-24T00:29:29.630Z,91893.08
2019-01-24T00:29:52.378Z,91895.45
2019-01-24T00:30:15.105Z,91895.33
2019-01-24T00:30:37.712Z,91891.02
2019-01-24T00:31:00.450Z,91889.03
2019-01-24T00:31:23.350Z,91894.27
2019-01-24T00:31:46.018Z,91896.78
2019-01-24T00:32:08.810Z,91894.20
2019-01-24T00:32:31.511Z,91891.17
2019-01-24T00:32:54.270Z,91895.40
2019-01-24T00:33:16.866Z,91891.02
2019-01-24T00:33:39.586Z,91890.09
2019-01-24T00:34:02.162Z,91894.48
2019-01-24T00:34:24.752Z,91895.73
2019-01-24T00:34:47.425Z,91888.98
2019-01-24T00:35:10.449Z,91891.41
2019-01-24T00:35:33.212Z,91892.91
2019-01-24T00:35:55.906Z,91891.69
2019-01-24T00:36:18.734Z,91891.57
2019-01-24T00:36:41.490Z,91891.67
2019-01-24T00:37:04.005Z,91894.98
2019-01-24T00:37:26.670Z,91893.25
2019-01-24T00:37:49.824Z,91891.86
2019-01-24T00:38:13.185Z,91894.28
2019-01-24T00:38:35.850Z,91893.64
2019-01-24T00:38:58.650Z,91893.86
2019-01-24T00:39:21.390Z,91893.72
2019-01-24T00:39:44.130Z,91895.39
2019-01-24T00:40:06.889Z,91892.86
2019-01-24T00:40:29.630Z,91894.95
2019-01-24T00:40:52.271Z,91893.66
2019-01-24T00:41:14.910Z,91894.44
2019-01-24T00:41:37.612Z,91894.16
2019-01-24T00:42:00.392Z,91898.89
2019-01-24T00:42:23.089Z,91897.66
2019-01-24T00:42:45.650Z,91898.16
2019-01-24T00:43:08.290Z,91893.77
2019-01-24T00:43:31.090Z,91899.61
2019-01-24T00:43:54.051Z,91897.02
2019-01-24T00:44:16.730Z,91901.69
2019-01-24T00:44:39.430Z,91897.80
2019-01-24T00:45:02.069Z,91900.17
2019-01-24T00:45:24.850Z,91899.27
2019-01-24T00:45:47.511Z,91899.83
2019-01-24T00:46:10.305Z,91901.91
2019-01-24T00:46:33.009Z,91901.46
2019-01-24T00:46:55.630Z,91900.45
2019-01-24T00:47:18.270Z,91896.52
2019-01-24T00:47:41.191Z,91903.04
2019-01-24T00:48:03.829Z,91900.90
2019-01-24T00:48:26.491Z,91902.92
2019-01-24T00:48:49.150Z,91905.56
2019-01-24T00:49:12.060Z,91895.22
2019-01-24T00:49:34.750Z,91899.04
2019-01-24T00:49:57.450Z,91899.20
2019-01-24T00:50:20.211Z,91900.44
2019-01-24T00:50:43.291Z,91903.03
2019-01-24T00:51:06.048Z,91900.85
2019-01-24T00:51:28.670Z,91899.15
2019-01-24T00:51:51.425Z,91900.28
2019-01-24T00:52:14.147Z,91900.28
2019-01-24T00:52:36.830Z,91900.22
2019-01-24T00:52:59.909Z,91901.36
2019-01-24T00:53:22.945Z,91900.34
2019-01-24T00:53:45.632Z,91900.33
2019-01-24T00:54:08.231Z,91897.30
2019-01-24T00:54:31.032Z,91898.87
2019-01-24T00:54:53.830Z,91905.34
2019-01-24T00:55:16.509Z,91902.76
2019-01-24T00:55:39.265Z,91896.01
2019-01-24T00:56:02.003Z,91903.44
2019-01-24T00:56:24.615Z,91897.56
2019-01-24T00:56:47.150Z,91901.14
2019-01-24T00:57:09.770Z,91902.88
2019-01-24T00:57:32.990Z,91897.87
2019-01-24T00:57:55.770Z,91900.23
2019-01-24T00:58:18.411Z,91901.02
2019-01-24T00:58:41.096Z,91905.91
2019-01-24T00:59:03.742Z,91903.04
2019-01-24T00:59:26.392Z,91901.97
2019-01-24T00:59:49.071Z,91901.97
2019-01-24T01:00:11.830Z,91901.69
2019-01-24T01:00:34.410Z,91906.30
2019-01-24T01:00:57.064Z,91902.92
2019-01-24T01:01:19.790Z,91906.23
2019-01-24T01:01:42.970Z,91909.73
2019-01-24T01:02:05.990Z,91903.77
2019-01-24T01:02:28.650Z,91900.84
2019-01-24T01:02:51.354Z,91908.09
2019-01-24T01:03:14.030Z,91907.30
2019-01-24T01:03:36.576Z,91906.36
2019-01-24T01:04:00.030Z,91907.65
2019-01-24T01:04:22.710Z,91907.81
2019-01-24T01:04:45.232Z,91901.46
2019-01-24T01:05:07.890Z,91904.17
2019-01-24T01:05:30.810Z,91908.84
2019-01-24T01:05:53.550Z,91903.03
2019-01-24T01:06:16.385Z,91903.72
2019-01-24T01:06:39.131Z,91905.39
2019-01-24T01:07:01.763Z,91902.13
2019-01-24T01:07:24.546Z,91901.84
2019-01-24T01:07:47.210Z,91901.58
2019-01-24T01:08:10.370Z,91907.61
2019-01-24T01:08:33.024Z,91905.97
2019-01-24T01:08:55.859Z,91906.64
2019-01-24T01:09:18.730Z,91904.78
2019-01-24T01:09:41.550Z,91907.81
2019-01-24T01:10:04.129Z,91900.33
2019-01-24T01:10:27.270Z,91905.51
2019-01-24T01:10:49.986Z,91904.63
2019-01-24T01:11:13.025Z,91909.80
2019-01-24T01:11:35.811Z,91905.73
2019-01-24T01:11:58.450Z,91906.65
2019-01-24T01:12:21.185Z,91907.44
2019-01-24T01:12:43.950Z,91907.44
2019-01-24T01:13:07.090Z,91907.37
2019-01-24T01:13:29.751Z,91909.11
2019-01-24T01:13:52.430Z,91906.59
2019-01-24T01:14:15.105Z,91914.13
2019-01-24T01:14:37.729Z,91910.25
2019-01-24T01:15:00.329Z,91909.80
2019-01-24T01:15:22.993Z,91911.19
2019-01-24T01:15:45.811Z,91913.84
2019-01-24T01:16:08.424Z,91906.92
2019-01-24T01:16:31.210Z,91908.62
2019-01-24T01:16:53.930Z,91907.61
2019-01-24T01:17:16.631Z,91913.94
2019-01-24T01:17:39.318Z,91911.80
2019-01-24T01:18:01.945Z,91908.78
2019-01-24T01:18:24.590Z,91908.22
2019-01-24T01:18:47.425Z,91913.84
2019-01-24T01:19:10.145Z,91917.06
2019-01-24T01:19:32.865Z,91912.20
2019-01-24T01:19:55.589Z,91914.98
2019-01-24T01:20:18.252Z,91918.56
2019-01-24T01:20:40.890Z,91914.17
2019-01-24T01:21:03.430Z,91921.55
2019-01-24T01:21:26.146Z,91915.41
2019-01-24T01:21:49.150Z,91920.02
2019-01-24T01:22:12.190Z,91920.81
2019-01-24T01:22:34.870Z,91919.46
2019-01-24T01:22:57.531Z,91914.28
2019-01-24T01:23:20.311Z,91922.84
2019-01-24T01:23:43.030Z,91923.69
2019-01-24T01:24:05.630Z,91924.02
2019-01-24T01:24:28.345Z,91925.60
2019-01-24T01:24:51.129Z,91923.89
2019-01-24T01:25:13.770Z,91924.97
2019-01-24T01:25:36.324Z,91924.73
2019-01-24T01:25:59.490Z,91924.68
2019-01-24T01:26:22.140Z,91921.81
2019-01-24T01:26:44.867Z,91933.02
2019-01-24T01:27:07.490Z,91926.20
2019-01-24T01:27:30.170Z,91926.50
2019-01-24T01:27:52.910Z,91927.28
2019-01-24T01:28:15.491Z,91930.16
2019-01-24T01:28:38.090Z,91927.00
2019-01-24T01:29:00.810Z,91930.03
2019-01-24T01:29:24.166Z,91928.74
2019-01-24T01:29:46.931Z,91928.91
2019-01-24T01:30:09.750Z,91934.99
2019-01-24T01:30:32.385Z,91928.45
2019-01-24T01:30:55.930Z,91925.38
2019-01-24T01:31:18.950Z,91924.75
2019-01-24T01:31:42.231Z,91928.13
2019-01-24T01:32:04.790Z,91927.17
2019-01-24T01:32:27.585Z,91929.20
2019-01-24T01:32:50.263Z,91932.45
2019-01-24T01:33:13.025Z,91927.91
2019-01-24T01:33:35.745Z,91928.13
2019-01-24T01:33:58.431Z,91932.52
2019-01-24T01:34:21.150Z,91928.73
2019-01-24T01:34:43.830Z,91930.98
2019-01-24T01:35:07.731Z,91932.11
2019-01-24T01:35:30.670Z,91932.62
2019-01-24T01:35:53.813Z,91931.11
2019-01-24T01:36:16.471Z,91934.06
2019-01-24T01:36:39.070Z,91927.25
2019-01-24T01:37:01.729Z,91930.69
2019-01-24T01:37:24.290Z,91934.77
2019-01-24T01:37:46.945Z,91936.44
2019-01-24T01:38:10.191Z,91934.54
2019-01-24T01:38:33.110Z,91933.53
2019-01-24T01:38:55.714Z,91933.17
2019-01-24T01:39:18.470Z,91934.09
2019-01-24T01:39:41.185Z,91934.21
2019-01-24T01:40:03.754Z,91932.56
2019-01-24T01:40:26.970Z,91933.35
2019-01-24T01:40:49.629Z,91936.79
2019-01-24T01:41:12.229Z,91933.19
2019-01-24T01:41:34.893Z,91930.60
2019-01-24T01:41:57.505Z,91936.91
2019-01-24T01:42:20.130Z,91933.38
2019-01-24T01:42:42.857Z,91930.30
2019-01-24T01:43:06.289Z,91931.38
2019-01-24T01:43:29.050Z,91930.83
2019-01-24T01:43:51.747Z,91926.89
2019-01-24T01:44:14.465Z,91930.20
2019-01-24T01:44:37.112Z,91929.86
2019-01-24T01:44:59.772Z,91929.64
2019-01-24T01:45:22.311Z,91932.11
2019-01-24T01:45:45.911Z,91927.63
2019-01-24T01:46:08.706Z,91928.34
2019-01-24T01:46:31.414Z,91931.78
2019-01-24T01:46:54.142Z,91925.88
2019-01-24T01:47:16.714Z,91930.49
2019-01-24T01:47:39.870Z,91930.20
2019-01-24T01:48:02.412Z,91928.70
2019-01-24T01:48:25.025Z,91930.37
2019-01-24T01:48:48.065Z,91931.20
2019-01-24T01:49:10.769Z,91932.78
2019-01-24T01:49:33.430Z,91934.48
2019-01-24T01:49:56.310Z,91931.11
2019-01-24T01:50:18.945Z,91930.54
2019-01-24T01:50:41.665Z,91932.35
2019-01-24T01:51:04.330Z,91929.77
2019-01-24T01:51:27.471Z,91929.31
2019-01-24T01:51:50.146Z,91928.45
2019-01-24T01:52:12.866Z,91934.20
2019-01-24T01:52:36.095Z,91933.86
2019-01-24T01:52:59.035Z,91928.02
2019-01-24T01:53:21.750Z,91926.31
2019-01-24T01:53:44.371Z,91934.50
2019-01-24T01:54:07.051Z,91931.69
2019-01-24T01:54:29.670Z,91931.05
2019-01-24T01:54:52.370Z,91929.30
2019-01-24T01:55:15.007Z,91933.98
2019-01-24T01:55:37.665Z,91928.75
2019-01-24T01:56:00.385Z,91934.08
2019-01-24T01:56:23.810Z,91929.30
2019-01-24T01:56:46.471Z,91933.41
2019-01-24T01:57:09.212Z,91930.72
2019-01-24T01:57:31.910Z,91927.91
2019-01-24T01:57:54.625Z,91932.08
2019-01-24T01:58:17.330Z,91931.00
2019-01-24T01:58:40.411Z,91932.30
2019-01-24T01:59:02.950Z,91928.41
2019-01-24T01:59:25.550Z,91930.44
2019-01-24T01:59:48.310Z,91926.16
2019-01-24T02:00:10.871Z,91928.45
2019-01-24T02:00:33.556Z,91927.67
2019-01-24T02:00:56.151Z,91924.58
2019-01-24T02:01:18.870Z,91928.75
2019-01-24T02:01:41.631Z,91924.30
2019-01-24T02:02:04.450Z,91926.33
2019-01-24T02:02:27.071Z,91928.34
2019-01-24T02:02:49.749Z,91924.13
2019-01-24T02:03:12.949Z,91925.04
2019-01-24T02:03:35.668Z,91923.75
2019-01-24T02:03:58.572Z,91919.17
2019-01-24T02:04:21.270Z,91925.33
2019-01-24T02:04:43.870Z,91918.01
2019-01-24T02:05:07.071Z,91918.73
2019-01-24T02:05:29.730Z,91927.50
2019-01-24T02:05:52.631Z,91923.24
2019-01-24T02:06:15.290Z,91925.64
2019-01-24T02:06:37.890Z,91927.72
2019-01-24T02:07:00.545Z,91923.90
2019-01-24T02:07:23.230Z,91923.73
2019-01-24T02:07:45.860Z,91927.91
2019-01-24T02:08:08.630Z,91925.82
2019-01-24T02:08:31.250Z,91928.34
2019-01-24T02:08:53.850Z,91926.55
2019-01-24T02:09:16.511Z,91924.75
2019-01-24T02:09:39.312Z,91923.11
2019-01-24T02:10:01.963Z,91922.89
2019-01-24T02:10:24.550Z,91924.53
2019-01-24T02:10:47.469Z,91917.55
2019-01-24T02:11:10.210Z,91919.64
2019-01-24T02:11:32.810Z,91924.09
2019-01-24T02:11:55.371Z,91922.85
2019-01-24T02:12:18.551Z,91924.93
2019-01-24T02:12:41.150Z,91921.78
2019-01-24T02:13:03.730Z,91925.16
2019-01-24T02:13:26.466Z,91924.02
2019-01-24T02:13:49.110Z,91921.44
2019-01-24T02:14:11.690Z,91923.39
2019-01-24T02:14:34.306Z,91915.35
2019-01-24T02:14:57.053Z,91927.34
2019-01-24T02:15:19.745Z,91925.92
2019-01-24T02:15:42.510Z,91919.73
2019-01-24T02:16:05.139Z,91922.04
2019-01-24T02:16:27.874Z,91925.92
2019-01-24T02:16:50.625Z,91925.14
2019-01-24T02:17:13.340Z,91923.18
2019-01-24T02:17:35.870Z,91919.59
2019-01-24T02:17:58.465Z,91919.87
2019-01-24T02:18:21.170Z,91925.27
2019-01-24T02:18:43.890Z,91922.17
2019-01-24T02:19:06.793Z,91924.98
2019-01-24T02:19:29.452Z,91921.95
2019-01-24T02:19:52.150Z,91926.05
2019-01-24T02:20:15.230Z,91925.04
2019-01-24T02:20:37.770Z,91925.33
2019-01-24T02:21:00.470Z,91922.04
2019-01-24T02:21:23.030Z,91917.77
2019-01-24T02:21:45.710Z,91923.58
2019-01-24T02:22:08.385Z,91920.55
2019-01-24T02:22:31.067Z,91918.12
2019-01-24T02:22:53.649Z,91918.75
2019-01-24T02:23:16.390Z,91919.19
2019-01-24T02:23:39.130Z,91918.67
2019-01-24T02:24:01.730Z,91920.53
2019-01-24T02:24:24.429Z,91923.41
2019-01-24T02:24:47.170Z,91928.36
2019-01-24T02:25:09.890Z,91922.16
2019-01-24T02:25:32.590Z,91923.23
2019-01-24T02:25:55.265Z,91924.47
2019-01-24T02:26:18.272Z,91922.39
2019-01-24T02:26:40.930Z,91927.23
2019-01-24T02:27:03.510Z,91921.83
2019-01-24T02:27:26.144Z,91924.36
2019-01-24T02:27:48.849Z,91924.58
2019-01-24T02:28:11.555Z,91920.92
2019-01-24T02:28:34.172Z,91923.56
2019-01-24T02:28:56.769Z,91925.08
2019-01-24T02:29:19.450Z,91919.69
2019-01-24T02:29:42.070Z,91923.63
2019-01-24T02:30:04.865Z,91923.84
2019-01-24T02:30:30.270Z,91918.39
2019-01-24T02:30:52.985Z,91923.34
2019-01-24T02:31:15.632Z,91917.16
2019-01-24T02:31:38.305Z,91921.26
2019-01-24T02:32:01.000Z,91923.86
2019-01-24T02:32:23.851Z,91920.42
2019-01-24T02:32:46.510Z,91919.01
2019-01-24T02:33:10.890Z,91913.34
2019-01-24T02:33:33.506Z,91923.72
2019-01-24T02:33:56.172Z,91921.98
2019-01-24T02:34:18.943Z,91924.51
2019-01-24T02:34:42.024Z,91927.00
2019-01-24T02:35:05.170Z,91922.20
2019-01-24T02:35:27.911Z,91927.22
2019-01-24T02:35:50.610Z,91925.20
2019-01-24T02:36:13.370Z,91925.33
2019-01-24T02:36:36.225Z,91928.51
2019-01-24T02:36:58.830Z,91931.66
2019-01-24T02:37:21.572Z,91929.64
2019-01-24T02:37:44.250Z,91928.41
2019-01-24T02:38:07.290Z,91932.58
2019-01-24T02:38:29.950Z,91926.89
2019-01-24T02:38:52.670Z,91929.55
2019-01-24T02:39:15.431Z,91928.53
2019-01-24T02:39:37.987Z,91924.86
2019-01-24T02:40:00.544Z,91928.74
2019-01-24T02:40:23.692Z,91928.02
2019-01-24T02:40:46.450Z,91623.73
2019-01-24T02:41:09.065Z,91926.84
2019-01-24T02:41:31.898Z,91922.39
2019-01-24T02:41:54.891Z,91927.28
2019-01-24T02:42:17.471Z,91920.52
2019-01-24T02:42:40.150Z,91926.09
2019-01-24T02:43:02.650Z,91926.20
2019-01-24T02:43:25.500Z,91924.77
2019-01-24T02:43:51.106Z,91922.91
2019-01-24T02:44:13.830Z,91926.06
2019-01-24T02:44:36.585Z,91925.00
2019-01-24T02:44:59.250Z,91919.38
2019-01-24T02:45:22.250Z,91921.40
2019-01-24T02:45:45.310Z,91921.63
2019-01-24T02:46:07.952Z,91922.61
2019-01-24T02:46:30.632Z,91919.59
2019-01-24T02:46:53.150Z,91922.52
2019-01-24T02:47:16.545Z,91922.19
2019-01-24T02:47:39.310Z,91920.02
2019-01-24T02:48:01.963Z,91925.36
2019-01-24T02:48:24.594Z,91927.39
2019-01-24T02:48:47.250Z,91927.27
2019-01-24T02:49:09.890Z,91928.28
2019-01-24T02:49:32.590Z,91930.08
2019-01-24T02:49:55.370Z,91930.88
2019-01-24T02:50:18.654Z,91928.56
2019-01-24T02:50:41.690Z,91930.88
2019-01-24T02:51:04.324Z,91935.17
2019-01-24T02:51:27.106Z,91936.18
2019-01-24T02:51:49.794Z,91937.19
2019-01-24T02:52:12.470Z,91932.97
2019-01-24T02:52:35.210Z,91936.91
2019-01-24T02:52:57.970Z,91937.47
2019-01-24T02:53:20.650Z,91936.91
2019-01-24T02:53:44.311Z,91933.76
2019-01-24T02:54:07.052Z,91939.55
2019-01-24T02:54:29.890Z,91940.06
2019-01-24T02:54:53.132Z,91943.25
2019-01-24T02:55:15.738Z,91938.55
2019-01-24T02:55:38.285Z,91943.36
2019-01-24T02:56:01.025Z,91946.74
2019-01-24T02:56:24.150Z,91937.40
2019-01-24T02:56:46.852Z,91939.05
2019-01-24T02:57:09.530Z,91939.50
2019-01-24T02:57:32.710Z,91937.06
2019-01-24T02:57:55.530Z,91937.06
2019-01-24T02:58:18.190Z,91937.40
2019-01-24T02:58:40.737Z,91939.66
2019-01-24T02:59:03.310Z,91934.56
2019-01-24T02:59:25.869Z,91938.14
2019-01-24T02:59:48.673Z,91934.48
2019-01-24T03:00:11.453Z,91937.86
2019-01-24T03:00:34.271Z,91938.64
2019-01-24T03:00:57.049Z,91939.50
2019-01-24T03:01:19.753Z,91942.37
2019-01-24T03:01:42.432Z,91943.25
2019-01-24T03:02:05.186Z,91938.27
2019-01-24T03:02:28.311Z,91936.97
2019-01-24T03:02:51.312Z,91941.36
2019-01-24T03:03:13.985Z,91938.98
2019-01-24T03:03:36.690Z,91944.23
2019-01-24T03:03:59.789Z,91943.81
2019-01-24T03:04:22.522Z,91941.84
2019-01-24T03:04:45.166Z,91938.02
2019-01-24T03:05:07.850Z,91942.19
2019-01-24T03:05:30.530Z,91946.07
2019-01-24T03:05:53.710Z,91943.98
2019-01-24T03:06:16.385Z,91941.91
2019-01-24T03:06:39.104Z,91942.13
2019-01-24T03:07:01.764Z,91948.88
2019-01-24T03:07:24.390Z,91946.58
2019-01-24T03:07:46.945Z,91947.08
2019-01-24T03:08:09.660Z,91947.08
2019-01-24T03:08:32.430Z,91942.47
2019-01-24T03:08:55.213Z,91941.73
2019-01-24T03:09:17.870Z,91946.22
2019-01-24T03:09:40.570Z,91949.23
2019-01-24T03:10:03.195Z,91954.84
2019-01-24T03:10:25.970Z,91949.66
2019-01-24T03:10:48.990Z,91947.91
2019-01-24T03:11:12.409Z,91944.48
2019-01-24T03:11:35.106Z,91943.19
2019-01-24T03:11:57.709Z,91945.99
2019-01-24T03:12:20.270Z,91945.48
2019-01-24T03:12:43.194Z,91954.27
2019-01-24T03:13:06.269Z,91943.48
2019-01-24T03:13:28.932Z,91944.83
2019-01-24T03:13:51.550Z,91946.63
2019-01-24T03:14:14.230Z,91946.87
2019-01-24T03:14:37.370Z,91947.41
2019-01-24T03:15:00.552Z,91955.52
2019-01-24T03:15:23.130Z,91948.32
2019-01-24T03:15:45.724Z,91949.52
2019-01-24T03:16:08.304Z,91954.05
2019-01-24T03:16:30.912Z,91953.11
2019-01-24T03:16:53.489Z,91953.89
2019-01-24T03:17:16.114Z,91950.92
2019-01-24T03:17:38.751Z,91949.72
2019-01-24T03:18:01.305Z,91951.08
2019-01-24T03:18:23.990Z,91958.33
2019-01-24T03:18:46.594Z,91959.34
2019-01-24T03:19:09.210Z,91957.83
2019-01-24T03:19:32.546Z,91962.94
2019-01-24T03:19:56.014Z,91959.06
2019-01-24T03:20:18.672Z,91965.38
2019-01-24T03:20:41.192Z,91961.48
2019-01-24T03:21:03.790Z,91961.78
2019-01-24T03:21:26.970Z,91964.88
2019-01-24T03:21:49.537Z,91965.38
2019-01-24T03:22:12.270Z,91958.06
2019-01-24T03:22:34.945Z,91962.80
2019-01-24T03:22:57.670Z,91964.94
2019-01-24T03:23:20.411Z,91957.27
2019-01-24T03:23:43.090Z,91962.55
2019-01-24T03:24:05.825Z,91963.34
2019-01-24T03:24:28.470Z,91962.55
2019-01-24T03:24:51.052Z,91958.11
2019-01-24T03:25:13.650Z,91957.44
2019-01-24T03:25:36.330Z,91959.47
2019-01-24T03:25:59.115Z,91959.36
2019-01-24T03:26:21.825Z,91959.86
2019-01-24T03:26:44.546Z,91960.09
2019-01-24T03:27:07.674Z,91957.88
2019-01-24T03:27:30.352Z,91958.85
2019-01-24T03:27:53.109Z,91960.36
2019-01-24T03:28:16.230Z,91961.09
2019-01-24T03:28:38.869Z,91958.73
2019-01-24T03:29:01.524Z,91964.81
2019-01-24T03:29:24.730Z,91964.54
2019-01-24T03:29:47.390Z,91964.86
2019-01-24T03:30:09.953Z,91959.91
2019-01-24T03:30:32.592Z,91960.91
2019-01-24T03:30:55.180Z,91960.91
2019-01-24T03:31:17.851Z,91971.77
2019-01-24T03:31:40.711Z,91964.73
2019-01-24T03:32:03.293Z,91966.46
2019-01-24T03:32:25.990Z,91966.25
2019-01-24T03:32:48.575Z,91972.48
2019-01-24T03:33:11.258Z,91966.05
2019-01-24T03:33:33.912Z,91967.19
2019-01-24T03:33:56.630Z,91967.27
2019-01-24T03:34:19.230Z,91970.93
2019-01-24T03:34:41.892Z,91969.14
2019-01-24T03:35:04.741Z,91968.32
2019-01-24T03:35:27.510Z,91970.62
2019-01-24T03:35:50.656Z,91970.98
2019-01-24T03:36:13.249Z,91961.98
2019-01-24T03:36:35.850Z,91966.38
2019-01-24T03:36:58.469Z,91971.89
2019-01-24T03:37:21.091Z,91975.48
2019-01-24T03:37:43.675Z,91972.27
2019-01-24T03:38:06.210Z,91972.71
2019-01-24T03:38:28.831Z,91978.39
2019-01-24T03:38:51.465Z,91975.20
2019-01-24T03:39:14.493Z,91978.23
2019-01-24T03:39:37.211Z,91978.64
2019-01-24T03:39:59.790Z,91979.27
2019-01-24T03:40:22.711Z,91984.89
2019-01-24T03:40:45.270Z,91984.45
2019-01-24T03:41:07.891Z,91986.09
2019-01-24T03:41:30.446Z,91987.32
2019-01-24T03:41:53.775Z,91985.97
2019-01-24T03:42:16.350Z,91984.67
2019-01-24T03:42:38.912Z,91986.41
2019-01-24T03:43:01.549Z,91988.71
2019-01-24T03:43:24.690Z,91990.73
2019-01-24T03:43:47.269Z,91987.92
2019-01-24T03:44:10.111Z,91992.44
2019-01-24T03:44:32.663Z,91983.65
2019-01-24T03:44:55.184Z,91985.86
2019-01-24T03:45:17.773Z,91990.09
2019-01-24T03:45:40.830Z,91986.91
2019-01-24T03:46:03.310Z,91988.84
2019-01-24T03:46:25.989Z,91987.16
2019-01-24T03:46:48.592Z,91989.38
2019-01-24T03:47:11.090Z,91989.61
2019-01-24T03:47:33.690Z,91991.53
2019-01-24T03:47:56.266Z,91989.52
2019-01-24T03:48:18.976Z,91990.91
2019-01-24T03:48:42.474Z,91989.17
2019-01-24T03:49:05.307Z,91988.38
2019-01-24T03:49:28.049Z,91988.23
2019-01-24T03:49:50.630Z,91993.45
2019-01-24T03:50:13.310Z,91989.31
2019-01-24T03:50:36.156Z,91987.80
2019-01-24T03:50:58.830Z,91995.27
2019-01-24T03:51:21.371Z,91989.97
2019-01-24T03:51:44.051Z,91990.19
2019-01-24T03:52:06.748Z,91989.73
2019-01-24T03:52:29.490Z,91992.34
2019-01-24T03:52:52.090Z,91997.43
2019-01-24T03:53:14.650Z,91999.23
2019-01-24T03:53:37.270Z,91992.48
2019-01-24T03:53:59.870Z,91997.36
2019-01-24T03:54:24.071Z,91998.44
2019-01-24T03:54:46.648Z,91997.21
2019-01-24T03:55:09.250Z,91994.76
2019-01-24T03:55:31.935Z,91992.97
2019-01-24T03:55:54.570Z,91998.49
2019-01-24T03:56:17.331Z,91995.27
2019-01-24T03:56:40.065Z,91999.78
2019-01-24T03:57:02.646Z,91992.84
2019-01-24T03:57:26.786Z,92003.89
2019-01-24T03:57:50.250Z,91998.70
2019-01-24T03:58:12.862Z,92001.53
2019-01-24T03:58:35.530Z,92002.17
2019-01-24T03:58:58.229Z,92002.95
2019-01-24T03:59:21.036Z,92000.45
2019-01-24T03:59:44.065Z,91999.56
2019-01-24T04:00:07.252Z,92001.73
2019-01-24T04:00:30.270Z,92002.09
2019-01-24T04:00:52.966Z,92007.69
2019-01-24T04:01:15.692Z,92002.81
2019-01-24T04:01:38.304Z,92000.22
2019-01-24T04:02:01.455Z,92003.97
2019-01-24T04:02:24.251Z,92000.95
2019-01-24T04:02:47.030Z,92002.25
2019-01-24T04:03:11.010Z,92005.75
2019-01-24T04:03:33.730Z,92009.48
2019-01-24T04:03:56.870Z,92002.09
2019-01-24T04:04:19.551Z,92009.28
2019-01-24T04:04:42.170Z,92008.84
2019-01-24T04:05:11.541Z,92008.41
2019-01-24T04:05:29.231Z,92010.84
2019-01-24T04:05:52.650Z,92009.83
2019-01-24T04:06:15.230Z,92011.34
2019-01-24T04:06:37.931Z,92007.96
2019-01-24T04:07:00.631Z,92017.30
2019-01-24T04:07:23.215Z,92011.84
2019-01-24T04:07:46.109Z,92010.05
2019-01-24T04:08:08.749Z,92017.46
2019-01-24T04:08:31.551Z,92010.05
2019-01-24T04:08:54.228Z,92014.72
2019-01-24T04:09:16.865Z,92017.30
2019-01-24T04:09:39.611Z,92020.64
2019-01-24T04:10:02.355Z,92014.23
2019-01-24T04:10:25.050Z,92016.03
2019-01-24T04:10:47.630Z,92022.50
2019-01-24T04:11:10.505Z,92019.34
2019-01-24T04:11:33.504Z,92018.20
2019-01-24T04:11:56.250Z,92023.81
2019-01-24T04:12:18.971Z,92020.13
2019-01-24T04:12:41.590Z,92020.42
2019-01-24T04:13:04.130Z,92024.66
2019-01-24T04:13:26.778Z,92024.66
2019-01-24T04:13:49.499Z,92024.41
2019-01-24T04:14:12.191Z,92017.88
2019-01-24T04:14:34.870Z,92022.89
2019-01-24T04:14:57.659Z,92025.92
2019-01-24T04:15:20.372Z,92020.59
2019-01-24T04:15:43.272Z,92017.88
2019-01-24T04:16:06.254Z,92020.46
2019-01-24T04:16:28.798Z,92020.34
2019-01-24T04:16:51.582Z,92021.28
2019-01-24T04:17:14.330Z,92019.10
2019-01-24T04:17:36.870Z,92022.57
2019-01-24T04:17:59.450Z,92017.61
2019-01-24T04:18:22.138Z,92021.50
2019-01-24T04:18:44.890Z,92020.17
2019-01-24T04:19:09.350Z,92021.91
2019-01-24T04:19:31.970Z,92022.35
2019-01-24T04:19:54.623Z,92021.63
2019-01-24T04:20:17.269Z,92021.06
2019-01-24T04:20:41.590Z,92022.20
2019-01-24T04:21:04.592Z,92023.08
2019-01-24T04:21:27.292Z,92021.56
2019-01-24T04:21:50.070Z,92025.38
2019-01-24T04:22:12.864Z,92027.90
2019-01-24T04:22:36.221Z,92024.02
2019-01-24T04:22:58.849Z,92028.46
2019-01-24T04:23:21.490Z,92031.92
2019-01-24T04:23:44.391Z,92025.95
2019-01-24T04:24:07.811Z,92026.53
2019-01-24T04:24:30.439Z,92025.53
2019-01-24T04:24:53.894Z,92027.81
2019-01-24T04:25:16.544Z,92028.66
2019-01-24T04:25:39.371Z,92023.93
2019-01-24T04:26:01.990Z,92027.94
2019-01-24T04:26:24.652Z,92023.77
2019-01-24T04:26:47.489Z,92028.25
2019-01-24T04:27:10.469Z,92023.48
2019-01-24T04:27:33.272Z,92028.91